Aviation Digital Data Service (ADDS)

Output produced by METARs form (1905 UTC 22 August 2017)
found at http://aviationweather.gov/adds/metars/
 
KMSS 221743Z 2218/2318 22015KT 5SM -TSRA OVC035CB 
     TEMPO 2218/2220 24030G45KT 2SM +TSRA BR OVC020CB 
     FM222200 20017KT P6SM SHRA VCTS OVC035CB 
     FM230000 23014KT P6SM VCSH SCT015 BKN035 
     FM230500 25012KT P6SM FEW040 SCT070 
     FM231400 25013KT P6SM BKN040 
     FM231700 25014G20KT P6SM SCT040